Time;durP1;ratioP1;P1;durP2;ratioP2;P2;SDS_P1;SDS_P2;PMS_P1;PMS_P2;Temp;Humidity;BMP_temperature;BMP_pressure;BME280_temperature;BME280_humidity;BME280_pressure;Samples;Min_cycle;Max_cycle;Signal;HPM_P1;HPM_P2
2022/04/19 00:00:48;;;;;;;3.10;0.90;;;;;;;17.47;23.25;96448.34;5093259;28;20111;-34
2022/04/19 00:03:14;;;;;;;1.25;0.90;;;;;;;17.44;22.69;96454.78;5075312;28;20093;-34
2022/04/19 00:05:41;;;;;;;2.50;1.08;;;;;;;17.33;22.50;96448.31;5093306;28;20146;-34
2022/04/19 00:08:08;;;;;;;1.38;1.00;;;;;;;17.30;23.09;96447.31;5093254;28;20054;-33
2022/04/19 00:10:34;;;;;;;1.45;0.80;;;;;;;17.29;22.79;96448.53;5093447;28;20020;-33
2022/04/19 00:13:01;;;;;;;2.33;1.05;;;;;;;17.38;23.42;96451.19;5093329;28;20030;-33
2022/04/19 00:15:28;;;;;;;1.88;1.00;;;;;;;17.43;23.20;96441.56;5093628;28;20028;-33
2022/04/19 00:18:00;;;;;;;1.58;0.90;;;;;;;17.44;22.92;96452.03;5093485;28;20388;-33
2022/04/19 00:20:28;;;;;;;1.40;1.00;;;;;;;17.44;22.95;96454.00;5093213;28;20027;-33
2022/04/19 00:22:54;;;;;;;2.28;1.10;;;;;;;17.45;23.19;96453.56;5096201;28;20024;-33
2022/04/19 00:25:23;;;;;;;2.15;1.00;;;;;;;17.45;23.00;96442.59;5096948;28;20028;-33
2022/04/19 00:27:49;;;;;;;1.48;1.00;;;;;;;17.41;23.16;96444.00;5097157;28;20431;-33
2022/04/19 00:30:15;;;;;;;1.27;1.00;;;;;;;17.40;23.13;96439.75;5097096;28;20024;-33
2022/04/19 00:32:40;;;;;;;2.25;1.05;;;;;;;17.41;23.36;96435.78;5096913;28;20105;-33
2022/04/19 00:35:09;;;;;;;1.73;1.17;;;;;;;17.36;23.29;96426.22;5096648;28;20023;-33
2022/04/19 00:37:36;;;;;;;1.35;0.93;;;;;;;17.40;23.16;96432.28;5096801;28;20028;-33
2022/04/19 00:40:08;;;;;;;1.38;1.10;;;;;;;17.36;23.44;96442.66;5097108;28;20089;-34
2022/04/19 00:42:34;;;;;;;1.58;1.10;;;;;;;17.35;23.50;96430.19;5096610;28;20051;-33
2022/04/19 00:45:06;;;;;;;2.28;1.23;;;;;;;17.38;23.28;96432.00;5078519;28;20039;-33
2022/04/19 00:47:33;;;;;;;2.20;1.23;;;;;;;17.39;23.43;96430.00;5078458;28;20020;-33
2022/04/19 00:50:02;;;;;;;1.77;1.17;;;;;;;17.35;23.31;96424.72;5096816;28;20146;-33
2022/04/19 00:52:32;;;;;;;2.35;1.02;;;;;;;17.32;23.43;96425.63;5096691;28;20057;-34
2022/04/19 00:54:59;;;;;;;1.45;0.77;;;;;;;17.38;23.57;96418.28;5096444;28;20507;-34
2022/04/19 00:57:25;;;;;;;1.67;1.00;;;;;;;17.37;23.54;96422.25;5096525;28;20099;-33
2022/04/19 00:59:57;;;;;;;1.85;1.05;;;;;;;17.33;23.44;96424.41;5096580;28;20392;-33
2022/04/19 01:02:25;;;;;;;1.65;1.00;;;;;;;17.33;23.43;96421.69;5096661;28;20039;-33
2022/04/19 01:04:55;;;;;;;1.80;1.00;;;;;;;17.35;23.53;96418.47;5096256;28;20016;-33
2022/04/19 01:07:21;;;;;;;1.70;1.30;;;;;;;17.29;23.47;96426.59;5096609;28;20084;-33
2022/04/19 01:09:47;;;;;;;2.00;1.42;;;;;;;17.31;23.65;96428.88;5096271;28;20032;-33
2022/04/19 01:15:05;;;;;;;1.58;1.08;;;;;;;17.29;23.75;96429.34;5096392;28;20378;-33
2022/04/19 01:17:35;;;;;;;1.40;0.90;;;;;;;17.31;23.65;96426.13;5095945;28;20432;-33
2022/04/19 01:20:04;;;;;;;1.80;1.30;;;;;;;17.31;23.61;96423.41;5095731;28;20019;-33
2022/04/19 01:22:37;;;;;;;2.00;1.23;;;;;;;17.30;23.69;96419.13;5095973;28;20028;-33
2022/04/19 01:25:03;;;;;;;3.38;1.40;;;;;;;17.27;23.60;96415.34;5095846;28;20104;-34
2022/04/19 01:27:29;;;;;;;1.85;1.08;;;;;;;17.28;23.87;96432.56;5096179;28;20031;-33
2022/04/19 01:30:00;;;;;;;3.13;1.10;;;;;;;17.26;23.96;96426.78;5096211;28;20024;-33
2022/04/19 01:32:27;;;;;;;2.25;1.05;;;;;;;17.27;23.97;96412.63;5105116;28;20024;-33
2022/04/19 01:35:14;;;;;;;3.00;1.40;;;;;;;17.26;23.79;96419.31;5114023;28;20485;-33
2022/04/19 01:37:42;;;;;;;1.55;1.10;;;;;;;17.28;23.66;96414.13;5116371;28;20471;-33
2022/04/19 01:40:18;;;;;;;2.08;1.23;;;;;;;17.29;23.50;96423.88;5116079;28;20459;-33
2022/04/19 01:42:52;;;;;;;1.67;1.02;;;;;;;17.30;23.42;96410.91;5116037;28;20126;-33
2022/04/19 01:45:26;;;;;;;1.70;1.00;;;;;;;17.27;23.65;96417.34;5116002;28;20468;-33
2022/04/19 01:47:52;;;;;;;;;;;;;;;17.22;23.53;96411.28;5116507;28;20027;-33
2022/04/19 01:50:19;;;;;;;2.28;1.23;;;;;;;17.16;23.61;96407.69;5116191;28;19914;-33
2022/04/19 01:52:46;;;;;;;1.58;1.10;;;;;;;17.21;23.74;96409.00;5116033;28;20031;-33
2022/04/19 01:55:14;;;;;;;1.60;1.05;;;;;;;17.19;23.52;96403.97;5115836;28;20024;-33
2022/04/19 01:57:47;;;;;;;2.17;1.20;;;;;;;17.23;23.42;96403.81;5116002;28;20467;-33
2022/04/19 02:00:14;;;;;;;2.33;1.08;;;;;;;17.25;23.34;96398.63;5115749;28;20030;-33
2022/04/19 02:02:40;;;;;;;2.22;0.98;;;;;;;17.28;23.73;96396.94;5097436;28;20026;-33
2022/04/19 02:05:07;;;;;;;1.50;1.00;;;;;;;17.33;23.00;96399.75;5115470;28;20028;-33
2022/04/19 02:07:38;;;;;;;1.58;0.88;;;;;;;17.28;23.50;96397.69;5115412;28;20514;-33
2022/04/19 02:10:05;;;;;;;1.63;1.10;;;;;;;17.35;23.52;96397.28;5115782;28;20459;-33
2022/04/19 02:12:31;;;;;;;2.38;1.10;;;;;;;17.34;23.32;96393.03;5115545;28;20028;-34
2022/04/19 02:14:57;;;;;;;1.67;1.00;;;;;;;17.37;23.19;96389.38;5115429;28;20034;-33
2022/04/19 02:17:23;;;;;;;2.78;1.10;;;;;;;17.26;23.38;96394.66;5115425;28;20106;-34
2022/04/19 02:19:59;;;;;;;2.95;1.40;;;;;;;17.24;23.49;96397.09;5115224;28;20027;-33
2022/04/19 02:22:26;;;;;;;2.00;1.08;;;;;;;17.27;23.37;96389.94;5115468;28;20102;-33
2022/04/19 02:24:51;;;;;;;2.40;0.90;;;;;;;17.25;23.73;96390.41;5115473;28;20024;-33
2022/04/19 02:27:17;;;;;;;1.48;0.95;;;;;;;17.32;23.30;96398.22;5096849;28;20072;-34
2022/04/19 02:29:43;;;;;;;1.55;1.08;;;;;;;17.33;23.25;96394.25;5115124;28;20035;-33
2022/04/19 02:32:08;;;;;;;1.73;0.90;;;;;;;17.27;23.16;96398.91;5096901;28;20033;-34
2022/04/19 02:34:34;;;;;;;1.88;1.10;;;;;;;17.30;23.41;96400.72;5115049;28;20015;-33
2022/04/19 02:37:00;;;;;;;1.98;1.00;;;;;;;17.32;23.19;96392.75;5096806;28;20024;-34
2022/04/19 02:39:25;;;;;;;2.00;1.08;;;;;;;17.22;22.99;96394.81;5114892;28;20402;-33
2022/04/19 02:41:52;;;;;;;1.00;0.90;;;;;;;17.26;23.31;96397.38;5114409;28;20047;-34
2022/04/19 02:44:18;;;;;;;2.22;1.25;;;;;;;17.23;23.25;96403.81;5114385;28;20115;-33
2022/04/19 02:46:43;;;;;;;1.65;0.93;;;;;;;17.31;23.08;96398.72;5114858;28;20080;-34
2022/04/19 02:49:10;;;;;;;1.60;0.80;;;;;;;17.36;22.63;96398.81;5114619;28;20462;-33
2022/04/19 02:51:36;;;;;;;1.77;1.10;;;;;;;17.28;23.11;96405.91;5096582;28;20020;-33
2022/04/19 02:54:01;;;;;;;2.75;1.25;;;;;;;17.27;23.04;96400.88;5096444;28;20494;-34
2022/04/19 02:56:27;;;;;;;1.77;1.00;;;;;;;17.27;22.99;96395.41;5114625;28;20015;-33
2022/04/19 02:58:53;;;;;;;1.92;1.00;;;;;;;17.33;22.78;96399.00;5114541;28;20020;-34
2022/04/19 03:01:19;;;;;;;1.15;0.75;;;;;;;17.27;22.81;96401.66;5096402;28;20028;-33
2022/04/19 03:03:45;;;;;;;2.92;0.98;;;;;;;17.26;22.89;96394.66;5114542;28;20023;-33
2022/04/19 03:06:11;;;;;;;2.10;0.73;;;;;;;17.24;23.02;96397.09;5114353;28;20090;-33
2022/04/19 03:08:36;;;;;;;1.55;1.13;;;;;;;17.24;23.08;96394.34;5096422;28;20039;-33
2022/04/19 03:11:02;;;;;;;1.88;1.10;;;;;;;17.17;22.84;96392.00;5114213;28;20034;-33
2022/04/19 03:13:29;;;;;;;2.00;0.88;;;;;;;17.25;22.88;96384.91;5114508;28;20106;-33
2022/04/19 03:15:55;;;;;;;2.60;1.02;;;;;;;17.22;22.95;96380.38;5114310;28;20055;-33
2022/04/19 03:18:21;;;;;;;4.18;1.00;;;;;;;17.30;22.80;96383.50;5114150;28;20494;-33
2022/04/19 03:20:47;;;;;;;1.38;1.00;;;;;;;17.23;22.81;96379.13;5114366;28;20016;-34
2022/04/19 03:28:41;;;;;;;1.63;1.00;;;;;;;17.28;22.56;96381.25;5114168;28;20066;-33
2022/04/19 03:31:08;;;;;;;1.52;1.10;;;;;;;17.21;22.81;96381.59;5095761;28;20032;-33
2022/04/19 03:33:36;;;;;;;1.67;0.90;;;;;;;17.26;22.50;96385.66;5114171;28;20493;-33
2022/04/19 03:36:02;;;;;;;1.48;0.90;;;;;;;17.18;22.64;96388.03;5113948;28;20107;-33
2022/04/19 03:38:28;;;;;;;1.40;0.90;;;;;;;17.24;22.83;96391.63;5114025;28;20023;-33
2022/04/19 03:40:56;;;;;;;1.45;0.98;;;;;;;17.24;22.53;96388.88;5114043;28;20025;-33
2022/04/19 03:43:22;;;;;;;1.85;1.20;;;;;;;17.24;22.91;96389.63;5113972;28;20055;-34
2022/04/19 03:45:48;;;;;;;1.83;0.88;;;;;;;17.26;22.67;96394.66;5113837;28;20429;-33
2022/04/19 03:48:13;;;;;;;2.40;0.93;;;;;;;17.35;22.55;96391.06;5113791;28;20102;-33
2022/04/19 03:50:40;;;;;;;2.22;1.42;;;;;;;17.21;22.99;96395.28;5113876;28;20073;-33
2022/04/19 03:53:06;;;;;;;1.95;1.13;;;;;;;17.16;22.77;96401.44;5113806;28;20448;-33
2022/04/19 03:55:33;;;;;;;2.00;1.20;;;;;;;17.18;22.71;96405.22;5113696;28;20046;-33
2022/04/19 03:57:58;;;;;;;1.45;1.13;;;;;;;17.21;22.78;96414.47;5117724;28;20023;-35
2022/04/19 04:00:24;;;;;;;2.40;1.27;;;;;;;17.22;22.68;96411.28;5100056;28;20020;-33
2022/04/19 04:02:50;;;;;;;1.95;1.00;;;;;;;17.20;22.83;96407.47;5118030;28;20518;-34
2022/04/19 04:05:18;;;;;;;1.77;1.02;;;;;;;17.23;22.91;96418.28;5117874;28;20421;-34
2022/04/19 04:07:44;;;;;;;1.75;1.05;;;;;;;17.19;22.57;96416.94;5118106;28;20046;-34
2022/04/19 04:10:10;;;;;;;2.42;1.13;;;;;;;17.18;22.94;96418.91;5117946;28;20019;-33
2022/04/19 04:12:37;;;;;;;2.63;1.02;;;;;;;17.16;22.59;96407.69;5117757;28;20036;-35
2022/04/19 04:15:03;;;;;;;2.08;1.10;;;;;;;17.15;22.64;96416.38;5117789;28;20019;-34
2022/04/19 04:17:29;;;;;;;2.33;1.00;;;;;;;17.18;22.63;96415.44;5117712;28;20020;-33
2022/04/19 04:19:57;;;;;;;1.70;1.00;;;;;;;17.16;22.95;96417.88;5117648;28;20028;-34
2022/04/19 04:22:22;;;;;;;2.95;1.10;;;;;;;17.08;22.53;96417.47;5117604;28;20102;-33
2022/04/19 04:24:49;;;;;;;2.60;1.13;;;;;;;17.13;22.98;96421.56;5117820;28;20096;-33
2022/04/19 04:27:15;;;;;;;2.92;1.10;;;;;;;17.18;22.84;96421.66;5099131;28;20023;-34
2022/04/19 04:29:41;;;;;;;1.63;1.10;;;;;;;17.21;22.86;96403.50;5117737;28;20153;-33
2022/04/19 04:32:07;;;;;;;2.47;1.20;;;;;;;17.17;22.74;96408.44;5117448;28;20076;-33
2022/04/19 04:34:34;;;;;;;1.63;1.20;;;;;;;17.22;22.87;96421.47;5117495;28;20031;-33
2022/04/19 04:36:59;;;;;;;2.53;1.20;;;;;;;17.26;23.10;96413.84;5117181;28;20019;-33
2022/04/19 04:39:26;;;;;;;1.52;0.98;;;;;;;17.22;23.06;96416.75;5117295;28;20064;-33
2022/04/19 04:41:52;;;;;;;2.22;1.20;;;;;;;17.18;23.11;96427.13;5117019;28;20460;-33
2022/04/19 04:44:18;;;;;;;2.80;1.05;;;;;;;17.24;22.90;96432.72;5117254;28;20031;-33
2022/04/19 04:49:39;;;;;;;4.35;1.30;;;;;;;17.16;23.06;96434.34;5117575;28;20038;-35
2022/04/19 04:52:09;;;;;;;3.05;1.25;;;;;;;17.16;22.94;96429.59;5117067;28;20047;-33
2022/04/19 04:54:37;;;;;;;4.25;1.40;;;;;;;17.18;23.01;96440.09;5098856;28;20084;-33
2022/04/19 04:57:03;;;;;;;2.45;1.40;;;;;;;17.17;23.24;96442.09;5116958;28;20034;-33
2022/04/19 04:59:31;;;;;;;3.55;1.60;;;;;;;17.21;22.99;96436.41;5117091;28;20031;-33
2022/04/19 05:02:03;;;;;;;2.63;1.40;;;;;;;17.14;23.20;96442.25;5116944;28;20081;-33
2022/04/19 05:04:28;;;;;;;5.63;1.83;;;;;;;17.10;23.02;96445.16;5098620;28;20044;-33
2022/04/19 05:06:57;;;;;;;2.60;1.48;;;;;;;17.13;23.28;96440.75;5116501;28;20050;-33
2022/04/19 05:09:23;;;;;;;2.92;1.20;;;;;;;17.07;23.24;96442.59;5116764;28;20043;-33
2022/04/19 05:11:52;;;;;;;5.53;1.55;;;;;;;17.07;23.38;96443.38;5116703;28;20058;-33
2022/04/19 05:14:18;;;;;;;4.88;1.70;;;;;;;17.16;23.26;96448.03;5103037;28;20048;-33
2022/04/19 05:20:37;;;;;;;5.18;1.58;;;;;;;17.09;23.22;96451.13;5098966;28;20372;-33
2022/04/19 05:26:28;;;;;;;3.50;1.40;;;;;;;17.10;23.33;96447.16;5092866;28;20036;-33
2022/04/19 05:28:54;;;;;;;3.33;1.50;;;;;;;17.10;23.46;96447.91;5093986;28;20092;-33
2022/04/19 05:31:20;;;;;;;3.85;1.52;;;;;;;17.15;23.43;96444.53;5079473;28;20072;-33
2022/04/19 05:33:46;;;;;;;4.45;1.55;;;;;;;17.22;23.32;96449.63;5114104;28;20115;-34
2022/04/19 05:36:12;;;;;;;2.80;1.23;;;;;;;17.21;23.34;96448.13;5114104;28;20807;-33
2022/04/19 05:38:39;;;;;;;3.60;1.67;;;;;;;17.12;23.37;96445.47;5114008;28;20023;-33
2022/04/19 05:41:16;;;;;;;2.35;1.33;;;;;;;17.13;23.32;96446.22;5114052;28;20031;-33
2022/04/19 05:43:41;;;;;;;3.55;1.65;;;;;;;17.07;23.26;96448.09;5114042;28;20415;-33
2022/04/19 05:46:06;;;;;;;3.03;1.63;;;;;;;17.05;23.68;96453.28;5113876;28;20031;-34
2022/04/19 05:48:32;;;;;;;4.57;1.52;;;;;;;17.04;23.39;96447.06;5113825;28;20027;-33
2022/04/19 05:51:35;;;;;;;4.10;1.58;;;;;;;17.03;23.49;96453.00;5113840;28;20027;-33
2022/04/19 05:54:12;;;;;;;3.50;1.60;;;;;;;17.00;23.61;96460.16;5111820;28;20347;-34
2022/04/19 05:56:38;;;;;;;2.45;1.35;;;;;;;17.07;23.48;96459.81;5113729;28;20069;-33
2022/04/19 05:59:03;;;;;;;4.40;1.48;;;;;;;17.09;23.72;96451.13;5113695;28;20027;-33
2022/04/19 06:04:51;;;;;;;2.88;1.83;;;;;;;17.16;23.42;96453.50;5113494;28;20106;-34
2022/04/19 06:07:01;;;;;;;2.58;1.40;;;;;;;17.08;23.89;96449.59;5113559;28;20022;-33
2022/04/19 06:09:26;;;;;;;2.38;1.40;;;;;;;17.14;23.73;96445.75;5094344;28;20031;-34
2022/04/19 06:11:52;;;;;;;2.75;1.60;;;;;;;17.12;23.99;96444.69;5093080;28;20058;-33
2022/04/19 06:14:19;;;;;;;2.83;1.52;;;;;;;17.11;24.12;96449.44;5092873;28;20035;-34
2022/04/19 06:16:44;;;;;;;2.20;1.50;;;;;;;17.07;24.03;96450.81;5093077;28;20112;-34
2022/04/19 06:19:09;;;;;;;4.78;1.65;;;;;;;17.05;24.15;96445.84;5092067;28;20439;-33
2022/04/19 06:21:39;;;;;;;3.33;1.63;;;;;;;17.10;23.91;96452.63;5092881;28;20024;-33
2022/04/19 06:27:26;;;;;;;2.72;1.60;;;;;;;17.02;24.48;96449.50;5092107;28;20145;-33
2022/04/19 06:29:52;;;;;;;4.15;1.80;;;;;;;16.86;24.88;96450.69;5092996;28;20099;-33
2022/04/19 06:32:19;;;;;;;2.70;1.38;;;;;;;17.01;24.85;96449.97;5090880;28;20032;-33
2022/04/19 06:34:46;;;;;;;4.30;1.58;;;;;;;17.03;25.01;96456.50;5092803;28;20092;-34
2022/04/19 06:37:11;;;;;;;3.00;1.40;;;;;;;16.96;25.54;96454.09;5092374;28;20024;-33
2022/04/19 06:39:37;;;;;;;3.22;1.40;;;;;;;16.90;25.93;96447.78;5074490;28;20361;-34
2022/04/19 06:42:03;;;;;;;2.88;1.42;;;;;;;16.95;26.27;96449.84;5092341;28;20143;-33
2022/04/19 06:44:29;;;;;;;3.50;1.45;;;;;;;17.04;26.48;96444.31;5092608;28;20110;-33
2022/04/19 06:46:55;;;;;;;3.20;1.63;;;;;;;16.95;26.81;96449.84;5092215;28;20061;-33
2022/04/19 06:49:20;;;;;;;2.75;1.30;;;;;;;16.96;27.17;96443.16;5092016;28;20444;-33
2022/04/19 06:51:46;;;;;;;4.70;1.70;;;;;;;16.81;27.63;96445.09;5092355;28;20028;-33
2022/04/19 06:54:15;;;;;;;7.13;1.77;;;;;;;16.97;27.58;96438.41;5074070;28;20032;-33
2022/04/19 06:56:41;;;;;;;3.88;1.60;;;;;;;17.01;27.86;96431.56;5074050;28;20023;-34
2022/04/19 06:59:10;;;;;;;4.28;1.63;;;;;;;16.92;28.20;96428.13;5092210;28;20186;-33
2022/04/19 07:01:38;;;;;;;3.08;1.50;;;;;;;16.96;28.54;96437.66;5091945;28;20384;-34
2022/04/19 07:04:04;;;;;;;3.50;1.73;;;;;;;16.93;28.94;96427.66;5092182;28;20039;-33
2022/04/19 07:06:29;;;;;;;5.13;1.55;;;;;;;16.96;28.46;96431.44;5091671;28;20508;-33
2022/04/19 07:08:55;;;;;;;4.40;1.42;;;;;;;17.05;28.79;96440.34;5087853;28;20032;-34
2022/04/19 07:11:21;;;;;;;3.08;1.67;;;;;;;16.78;29.73;96435.81;5094186;28;20043;-33
2022/04/19 07:13:49;;;;;;;5.13;1.98;;;;;;;16.92;29.87;96431.63;5112039;28;20464;-33
2022/04/19 07:16:15;;;;;;;4.43;1.42;;;;;;;16.79;30.29;96431.09;5107159;28;20027;-33
2022/04/19 07:18:40;;;;;;;4.72;1.70;;;;;;;16.81;30.80;96432.13;5111157;28;20682;-33
2022/04/19 07:26:45;;;;;;;4.43;2.00;;;;;;;16.79;31.79;96418.16;5091542;28;20434;-34
2022/04/19 07:29:12;;;;;;;4.40;1.73;;;;;;;16.71;32.09;96422.47;5073447;28;20067;-33
2022/04/19 07:31:39;;;;;;;2.92;1.80;;;;;;;16.73;32.30;96420.03;5091610;28;20119;-34
2022/04/19 07:34:05;;;;;;;3.63;1.95;;;;;;;16.70;32.50;96420.94;5104235;28;20375;-33
2022/04/19 07:36:39;;;;;;;3.08;1.90;;;;;;;16.73;32.79;96425.50;5111589;28;20023;-33
2022/04/19 07:39:08;;;;;;;3.15;1.92;;;;;;;16.81;32.41;96418.44;5109046;28;20472;-33
2022/04/19 07:41:37;;;;;;;4.00;1.67;;;;;;;16.79;32.63;96417.41;5091183;28;20032;-33
2022/04/19 07:44:10;;;;;;;4.03;1.90;;;;;;;16.91;32.82;96418.41;5109276;28;20061;-33
2022/04/19 07:46:36;;;;;;;2.90;1.70;;;;;;;16.70;33.32;96420.19;5111634;28;20043;-34
2022/04/19 07:49:02;;;;;;;3.00;1.75;;;;;;;16.73;33.45;96422.00;5111744;28;20078;-33
2022/04/19 07:51:29;;;;;;;4.95;1.60;;;;;;;16.80;33.18;96429.88;5112001;28;20034;-33
2022/04/19 07:53:55;;;;;;;4.18;1.98;;;;;;;16.77;33.67;96428.06;5111852;28;20031;-33
2022/04/19 07:56:20;;;;;;;6.18;2.15;;;;;;;16.71;34.16;96425.22;5111937;28;20099;-34
2022/04/19 07:58:47;;;;;;;6.65;2.05;;;;;;;16.79;34.03;96428.38;5111702;28;20126;-33
2022/04/19 08:01:13;;;;;;;3.78;1.75;;;;;;;16.72;34.36;96434.19;5111385;28;20023;-33
2022/04/19 08:03:39;;;;;;;5.50;1.70;;;;;;;16.77;34.19;96426.09;5111575;28;20020;-33
2022/04/19 08:06:05;;;;;;;4.32;1.75;;;;;;;16.93;33.89;96422.19;5111429;28;20024;-33
2022/04/19 08:08:30;;;;;;;4.00;1.98;;;;;;;16.71;34.46;96433.41;5082096;28;20027;-33
2022/04/19 08:10:56;;;;;;;4.78;2.15;;;;;;;16.81;34.47;96443.09;5091356;28;20077;-33
2022/04/19 08:13:21;;;;;;;4.55;1.95;;;;;;;16.72;34.66;96443.16;5091062;28;20020;-33
2022/04/19 08:15:47;;;;;;;4.78;2.47;;;;;;;16.63;35.09;96431.50;5091298;28;20065;-34
2022/04/19 08:18:18;;;;;;;4.95;2.47;;;;;;;16.05;36.81;96433.44;5091031;28;20040;-33
2022/04/19 08:20:44;;;;;;;5.40;2.20;;;;;;;16.05;36.89;96436.19;5091156;28;20024;-32
2022/04/19 08:23:11;;;;;;;4.68;2.08;;;;;;;16.36;36.13;96435.13;5091330;28;20044;-32
2022/04/19 08:25:37;;;;;;;6.70;2.28;;;;;;;16.63;35.18;96429.53;5090842;28;20341;-32
2022/04/19 08:28:03;;;;;;;7.35;1.88;;;;;;;16.81;34.87;96429.41;5091143;28;20460;-32
2022/04/19 08:30:31;;;;;;;7.53;2.00;;;;;;;16.50;35.44;96437.94;5072717;28;20031;-32
2022/04/19 08:32:56;;;;;;;4.45;1.80;;;;;;;16.67;35.31;96432.84;5071209;28;20111;-33
2022/04/19 08:35:22;;;;;;;4.90;1.60;;;;;;;16.64;34.85;96427.56;5091005;28;20161;-33
2022/04/19 08:37:48;;;;;;;6.22;1.80;;;;;;;16.80;34.71;96441.59;5090899;28;20031;-32
2022/04/19 08:40:14;;;;;;;5.72;1.73;;;;;;;16.79;34.50;96444.81;5072817;28;20467;-32
2022/04/19 08:42:40;;;;;;;3.20;1.60;;;;;;;16.61;33.87;96445.63;5092051;28;20048;-33
2022/04/19 08:45:08;;;;;;;4.70;1.48;;;;;;;16.69;33.88;96435.88;5094866;28;20449;-32
2022/04/19 08:47:38;;;;;;;4.05;1.73;;;;;;;16.69;34.10;96440.63;5094738;28;20035;-33
2022/04/19 08:50:07;;;;;;;4.50;1.80;;;;;;;16.62;34.64;96438.97;5094586;28;20050;-33
2022/04/19 08:52:33;;;;;;;4.55;1.83;;;;;;;16.77;34.02;96428.06;5094696;28;20027;-33
2022/04/19 08:57:44;;;;;;;5.05;1.80;;;;;;;16.62;34.44;96438.97;5113309;28;20034;-32
2022/04/19 09:00:10;;;;;;;6.20;1.73;;;;;;;16.56;34.50;96432.59;5114158;28;20378;-33
2022/04/19 09:02:38;;;;;;;3.97;1.60;;;;;;;16.81;33.92;96442.34;5095511;28;20034;-32
2022/04/19 09:05:21;;;;;;;5.50;2.35;;;;;;;16.73;34.16;96447.41;5114851;28;20030;-32
2022/04/19 09:07:51;;;;;;;4.45;1.90;;;;;;;16.66;34.63;96441.53;5114682;28;20023;-32
2022/04/19 09:10:32;;;;;;;4.00;1.40;;;;;;;16.40;34.66;96449.41;5115052;28;20032;-33
2022/04/19 09:13:04;;;;;;;2.85;1.58;;;;;;;16.66;34.22;96447.78;5115286;28;20034;-32
2022/04/19 09:15:43;;;;;;;4.78;1.67;;;;;;;16.64;34.23;96438.50;5116970;28;20108;-32
2022/04/19 09:18:24;;;;;;;3.67;1.25;;;;;;;16.67;34.10;96434.84;5098148;28;20035;-32
2022/04/19 09:20:51;;;;;;;4.20;1.60;;;;;;;16.62;34.25;96441.69;5116459;28;20024;-33
2022/04/19 09:23:18;;;;;;;2.83;1.42;;;;;;;16.68;34.26;96448.06;5116460;28;20114;-32
2022/04/19 09:25:45;;;;;;;2.67;1.38;;;;;;;16.59;34.33;96452.78;5116397;28;20034;-32
2022/04/19 09:28:16;;;;;;;5.85;1.67;;;;;;;16.53;34.82;96428.81;5116255;28;20055;-33
2022/04/19 09:30:42;;;;;;;3.58;1.40;;;;;;;16.47;35.55;96441.59;5116316;28;20027;-32
2022/04/19 09:33:19;;;;;;;4.22;1.50;;;;;;;16.61;35.23;96429.19;5098075;28;20076;-32
2022/04/19 09:35:50;;;;;;;2.63;1.40;;;;;;;16.81;34.50;96437.63;5116189;28;20016;-32
2022/04/19 09:38:18;;;;;;;4.47;1.48;;;;;;;16.78;35.03;96430.34;5116162;28;20023;-32
2022/04/19 09:40:48;;;;;;;3.70;1.67;;;;;;;16.68;35.67;96428.13;5116001;28;20062;-33
2022/04/19 09:43:20;;;;;;;3.10;1.50;;;;;;;16.99;34.81;96427.75;5115922;28;20522;-32
2022/04/19 09:45:47;;;;;;;3.20;1.77;;;;;;;16.78;35.58;96424.88;5115967;28;20478;-33
2022/04/19 09:48:19;;;;;;;4.65;1.50;;;;;;;16.68;36.15;96428.91;5116071;28;20023;-33
2022/04/19 09:50:49;;;;;;;4.05;1.50;;;;;;;16.69;35.11;96429.66;5116298;28;20023;-33
2022/04/19 09:53:20;;;;;;;3.28;1.60;;;;;;;16.93;34.69;96430.41;5115545;28;20068;-32
2022/04/19 09:55:50;;;;;;;2.67;1.70;;;;;;;16.81;35.24;96421.19;5114959;28;20094;-32
2022/04/19 09:58:16;;;;;;;4.35;1.60;;;;;;;16.91;35.23;96430.09;5115838;28;20054;-33
2022/04/19 10:00:44;;;;;;;3.40;1.30;;;;;;;17.05;34.85;96428.63;5115888;28;20564;-33
2022/04/19 10:08:44;;;;;;;6.38;1.55;;;;;;;17.18;33.74;96418.19;5115938;28;20168;-33
2022/04/19 10:11:10;;;;;;;3.47;1.40;;;;;;;17.17;33.73;96435.84;5115455;28;20027;-33
2022/04/19 10:13:38;;;;;;;4.22;1.27;;;;;;;17.01;33.83;96425.31;5115468;28;20034;-32
2022/04/19 10:16:11;;;;;;;2.78;1.40;;;;;;;17.08;33.57;96411.25;5115262;28;20028;-33
2022/04/19 10:18:37;;;;;;;2.67;1.30;;;;;;;16.88;33.93;96420.84;5115548;28;20019;-32
2022/04/19 10:21:07;;;;;;;3.30;1.30;;;;;;;16.90;34.04;96417.63;5115539;28;20632;-33
2022/04/19 10:23:36;;;;;;;3.05;1.13;;;;;;;17.01;33.45;96422.56;5115725;28;20022;-33
2022/04/19 10:26:15;;;;;;;2.92;1.50;;;;;;;17.04;33.27;96422.41;5115129;28;20027;-32
2022/04/19 10:28:42;;;;;;;2.92;1.40;;;;;;;17.00;33.15;96416.34;5115174;28;20026;-32
2022/04/19 10:31:09;;;;;;;2.42;1.40;;;;;;;17.06;32.97;96419.94;5096744;28;20027;-32
2022/04/19 10:33:38;;;;;;;2.58;1.30;;;;;;;17.05;32.76;96417.69;5115230;28;20099;-33
2022/04/19 10:36:15;;;;;;;4.10;1.40;;;;;;;17.22;32.63;96416.00;5114854;28;20073;-33
2022/04/19 10:38:44;;;;;;;1.83;1.38;;;;;;;17.13;33.03;96416.84;5115174;28;20093;-32
2022/04/19 10:41:10;;;;;;;2.28;1.40;;;;;;;17.23;32.96;96425.72;5115264;28;20016;-32
2022/04/19 10:44:20;;;;;;;2.58;1.30;;;;;;;17.32;32.80;96411.19;5092941;28;20491;-32
2022/04/19 10:46:45;;;;;;;1.88;1.40;;;;;;;17.34;32.61;96417.72;5094587;28;20078;-32
2022/04/19 10:49:24;;;;;;;3.63;1.30;;;;;;;17.02;33.98;96415.88;5094186;28;20020;-32
2022/04/19 10:52:01;;;;;;;3.90;1.48;;;;;;;17.07;34.03;96415.97;5094205;28;20024;-32
2022/04/19 10:55:06;;;;;;;4.90;1.55;;;;;;;17.18;33.65;96399.72;5093082;28;20081;-32
2022/04/19 10:58:06;;;;;;;1.80;1.40;;;;;;;17.14;33.84;96401.16;5094407;28;20498;-33
2022/04/19 11:00:38;;;;;;;2.67;1.40;;;;;;;17.21;33.37;96400.78;5094028;28;20028;-33
2022/04/19 11:03:38;;;;;;;2.47;1.30;;;;;;;17.27;33.01;96400.88;5094453;28;20385;-33
2022/04/19 11:06:36;;;;;;;2.70;1.25;;;;;;;17.36;33.35;96387.09;5093888;28;20046;-32
2022/04/19 11:09:26;;;;;;;1.98;1.23;;;;;;;17.17;34.48;96395.50;5094272;28;20024;-32
2022/04/19 11:12:08;;;;;;;2.88;1.42;;;;;;;17.14;34.45;96381.97;5091169;28;20099;-32
2022/04/19 11:14:41;;;;;;;6.00;1.52;;;;;;;17.19;34.42;96384.03;5090435;28;20085;-33
2022/04/19 11:17:25;;;;;;;4.55;1.60;;;;;;;17.20;34.15;96386.31;5093598;28;20024;-32
2022/04/19 11:19:53;;;;;;;4.05;1.40;;;;;;;17.36;34.02;96387.09;5094150;28;20031;-32
2022/04/19 11:22:42;;;;;;;3.17;1.20;;;;;;;17.29;34.18;96382.00;5093758;28;20023;-33
2022/04/19 11:25:07;;;;;;;2.17;1.13;;;;;;;17.45;33.62;96378.75;5093732;28;20024;-33
2022/04/19 11:27:53;;;;;;;5.00;1.40;;;;;;;17.45;33.35;96382.25;5093182;28;20024;-33
2022/04/19 11:30:20;;;;;;;2.97;1.40;;;;;;;17.45;33.45;96384.25;5093910;28;20039;-32
2022/04/19 11:32:53;;;;;;;3.05;1.45;;;;;;;17.36;34.02;96387.84;5092704;28;20396;-33
2022/04/19 11:35:20;;;;;;;3.45;1.63;;;;;;;17.42;34.01;96387.97;5093988;28;20024;-32
2022/04/19 11:37:46;;;;;;;3.85;1.50;;;;;;;17.45;34.21;96387.75;5093713;28;20028;-32
2022/04/19 11:48:48;;;;;;;2.17;1.30;;;;;;;17.40;34.42;96382.94;5113980;28;20026;-33
2022/04/19 11:51:15;;;;;;;8.15;1.55;;;;;;;17.47;34.38;96387.28;5113925;28;20023;-32
2022/04/19 11:53:41;;;;;;;5.40;1.50;;;;;;;17.37;34.65;96378.41;5113777;28;20020;-32
2022/04/19 11:56:07;;;;;;;2.47;1.20;;;;;;;17.28;34.86;96378.50;5113654;28;20026;-33
2022/04/19 11:58:35;;;;;;;3.50;1.75;;;;;;;17.24;35.68;96372.44;5113620;28;20349;-32
2022/04/19 12:01:04;;;;;;;2.53;1.30;;;;;;;17.39;34.72;96378.69;5095353;28;20501;-33
2022/04/19 12:03:32;;;;;;;3.10;1.48;;;;;;;17.50;34.31;96373.38;5095346;28;20019;-33
2022/04/19 12:06:08;;;;;;;2.08;1.15;;;;;;;17.44;34.90;96380.75;5113372;28;20035;-33
2022/04/19 12:08:40;;;;;;;5.13;1.80;;;;;;;17.48;34.68;96367.63;5112662;28;20020;-33
2022/04/19 12:11:11;;;;;;;2.08;1.42;;;;;;;17.37;34.72;96378.41;5113317;28;20064;-32
2022/04/19 12:13:37;;;;;;;1.73;1.50;;;;;;;17.47;34.75;96381.78;5113513;28;20024;-33
2022/04/19 12:16:07;;;;;;;2.38;1.30;;;;;;;17.49;34.63;96371.13;5113554;28;20094;-33
2022/04/19 12:18:38;;;;;;;4.05;1.63;;;;;;;17.49;34.55;96369.13;5116359;28;20045;-32
2022/04/19 12:21:05;;;;;;;2.72;1.52;;;;;;;17.39;35.30;96377.94;5099294;28;20547;-32
2022/04/19 12:23:31;;;;;;;2.65;1.30;;;;;;;17.42;34.58;96372.25;5117710;28;20034;-33
2022/04/19 12:25:58;;;;;;;3.22;1.25;;;;;;;17.24;35.50;96373.19;5117461;28;20031;-32
2022/04/19 12:31:33;;;;;;;;;;;;;;;17.32;34.56;96378.28;5118379;28;20031;-33